createdAt,value
2023-03-29T00:02:55.260Z,0.50
2023-03-29T00:06:56.236Z,0.50
2023-03-29T00:14:55.638Z,0.39
2023-03-29T00:22:55.535Z,0.51
2023-03-29T00:30:55.443Z,0.50
2023-03-29T00:38:55.328Z,0.50
2023-03-29T00:46:55.435Z,0.53
2023-03-29T00:54:55.322Z,0.54
2023-03-29T00:58:56.263Z,0.50
2023-03-29T01:02:56.260Z,0.53
2023-03-29T01:06:56.218Z,0.50
2023-03-29T01:10:56.265Z,0.51
2023-03-29T01:14:56.193Z,0.54
2023-03-29T01:18:56.117Z,0.51
2023-03-29T01:22:56.062Z,0.52
2023-03-29T01:26:55.972Z,0.50
2023-03-29T01:30:55.927Z,0.53
2023-03-29T01:34:55.862Z,0.51
2023-03-29T01:38:55.849Z,0.52
2023-03-29T01:42:55.883Z,0.51
2023-03-29T01:46:56.051Z,0.53
2023-03-29T01:50:56.209Z,0.54
2023-03-29T01:54:56.355Z,0.54
2023-03-29T01:58:56.467Z,0.56
2023-03-29T02:06:55.844Z,0.54
2023-03-29T02:14:56.204Z,0.53
2023-03-29T02:22:56.137Z,0.55
2023-03-29T02:26:57.081Z,0.52
2023-03-29T02:30:57.026Z,0.52
2023-03-29T02:34:56.965Z,0.53
2023-03-29T02:38:56.920Z,0.52
2023-03-29T02:42:57.015Z,0.54
2023-03-29T02:46:57.247Z,0.52
2023-03-29T02:50:57.346Z,0.52
2023-03-29T02:54:57.277Z,0.51
2023-03-29T02:58:57.747Z,0.54
2023-03-29T03:02:58.756Z,0.52
2023-03-29T03:06:57.101Z,0.54
2023-03-29T03:10:57.046Z,0.53
2023-03-29T03:14:57.013Z,0.53
2023-03-29T03:18:56.950Z,0.52
2023-03-29T03:22:56.853Z,0.53
2023-03-29T03:26:56.801Z,0.52
2023-03-29T03:30:56.923Z,0.54
2023-03-29T03:34:56.960Z,0.54
2023-03-29T03:38:57.114Z,0.54
2023-03-29T03:42:57.247Z,0.54
2023-03-29T03:46:57.310Z,0.53
2023-03-29T03:50:57.299Z,0.54
2023-03-29T03:54:57.393Z,0.54
2023-03-29T03:58:57.539Z,0.54
2023-03-29T04:02:57.730Z,0.55
2023-03-29T04:06:57.743Z,0.52
2023-03-29T04:10:57.756Z,0.54
2023-03-29T04:18:56.909Z,0.56
2023-03-29T04:22:57.867Z,0.54
2023-03-29T04:30:57.142Z,0.53
2023-03-29T04:38:57.747Z,0.55
2023-03-29T04:46:57.456Z,0.54
2023-03-29T04:54:57.681Z,0.54
2023-03-29T05:02:58.020Z,0.55
2023-03-29T05:10:58.258Z,0.54
2023-03-29T09:02:58.930Z,4.58
2023-03-29T09:07:00.120Z,5.80
2023-03-29T11:02:57.037Z,6.20
2023-03-29T11:10:56.896Z,7.96
2023-03-29T11:18:56.405Z,9.35
2023-03-29T11:22:57.400Z,10.20
2023-03-29T11:26:57.399Z,10.82
2023-03-29T11:34:56.403Z,12.21
2023-03-29T11:46:56.335Z,13.24
2023-03-29T11:50:57.404Z,13.25
2023-03-29T11:58:56.922Z,13.57
2023-03-29T12:06:56.920Z,11.19
2023-03-29T12:14:56.909Z,2.16
2023-03-29T12:22:56.921Z,0.54
2023-03-29T12:30:57.432Z,1.39
2023-03-29T12:42:56.946Z,4.05
2023-03-29T12:50:56.488Z,7.31
2023-03-29T12:54:57.457Z,9.33
2023-03-29T12:58:57.461Z,6.93
2023-03-29T13:02:57.477Z,5.51
2023-03-29T13:10:55.915Z,2.71
2023-03-29T13:18:55.967Z,7.39
2023-03-29T13:26:55.550Z,11.62
2023-03-29T13:30:56.487Z,9.58
2023-03-29T13:34:56.354Z,8.90
2023-03-29T13:38:56.279Z,8.43
2023-03-29T13:42:56.146Z,8.00
2023-03-29T13:46:56.491Z,7.87
2023-03-29T13:50:56.487Z,7.55
2023-03-29T13:54:56.508Z,7.42
2023-03-29T13:58:56.493Z,7.10
2023-03-29T14:02:56.568Z,6.73
2023-03-29T14:06:56.479Z,6.76
2023-03-29T14:10:56.542Z,6.57
2023-03-29T14:14:59.434Z,6.47
2023-03-29T14:18:56.479Z,6.47
2023-03-29T14:22:55.979Z,6.13
2023-03-29T14:26:55.892Z,6.16
2023-03-29T14:30:55.997Z,6.01
2023-03-29T14:34:56.488Z,5.79
2023-03-29T14:38:55.990Z,5.69
2023-03-29T14:42:55.515Z,5.57
2023-03-29T14:46:55.487Z,5.47
2023-03-29T14:50:55.418Z,5.20
2023-03-29T14:54:56.004Z,5.18
2023-03-29T14:58:55.606Z,5.10
2023-03-29T15:02:55.720Z,4.90
2023-03-29T15:06:56.003Z,4.84
2023-03-29T15:10:55.858Z,4.70
2023-03-29T15:14:56.033Z,4.65
2023-03-29T15:18:56.040Z,4.59
2023-03-29T15:26:55.255Z,4.21
2023-03-29T15:34:55.450Z,4.15
2023-03-29T15:42:55.705Z,4.08
2023-03-29T19:22:57.384Z,2.21
2023-03-29T19:30:57.699Z,2.30
2023-03-29T19:38:57.453Z,2.24
2023-03-29T19:46:57.425Z,2.23
2023-03-29T19:54:57.229Z,2.08
2023-03-29T20:02:57.263Z,2.11
2023-03-29T20:10:57.096Z,2.08
2023-03-29T20:14:58.042Z,2.05
2023-03-29T20:18:58.011Z,2.00
2023-03-29T20:22:57.940Z,1.97
2023-03-29T20:26:57.863Z,1.97
2023-03-29T20:30:57.928Z,1.88
2023-03-29T20:34:57.887Z,1.92
2023-03-29T20:38:57.974Z,1.96
2023-03-29T20:42:57.731Z,1.92
2023-03-29T20:46:57.653Z,1.85
2023-03-29T20:50:57.772Z,1.83
2023-03-29T20:54:57.561Z,1.81
2023-03-29T20:58:57.728Z,1.78
2023-03-29T21:02:57.782Z,1.82
2023-03-29T21:06:57.656Z,1.78
2023-03-29T21:10:57.579Z,1.72
2023-03-29T21:14:57.555Z,1.77
2023-03-29T21:18:57.509Z,1.70
2023-03-29T21:22:57.475Z,1.61
2023-03-29T21:26:57.378Z,1.65
2023-03-29T21:30:57.352Z,1.65
2023-03-29T21:34:57.291Z,1.66
2023-03-29T21:38:57.255Z,1.58
2023-03-29T21:42:57.173Z,1.55
2023-03-29T21:46:57.169Z,1.58
2023-03-29T21:50:57.234Z,1.61
2023-03-29T21:54:57.218Z,1.53
2023-03-29T21:58:57.133Z,1.57
2023-03-29T22:02:57.163Z,1.55
2023-03-29T22:06:57.056Z,1.45
2023-03-29T22:10:57.096Z,1.45
2023-03-29T22:14:56.988Z,1.51
2023-03-29T22:18:57.199Z,1.47
2023-03-29T22:22:57.156Z,1.45
2023-03-29T22:26:57.142Z,1.49
2023-03-29T22:30:57.065Z,1.41
2023-03-29T22:34:57.032Z,1.40
2023-03-29T22:38:56.994Z,1.40
2023-03-29T22:42:56.980Z,1.44
2023-03-29T22:46:57.171Z,1.40
2023-03-29T22:50:57.133Z,1.35
2023-03-29T22:54:57.102Z,1.36
2023-03-29T22:58:57.092Z,1.35
2023-03-29T23:02:57.155Z,1.29
2023-03-29T23:06:57.003Z,1.34
2023-03-29T23:56:51.696Z,0.50
